sensor_id;sensor_type;location;lat;lon;timestamp;P1;durP1;ratioP1;P2;durP2;ratioP2
37903;SDS011;23738;50.422;18.758;2023-03-12T00:01:19;23.20;;;13.60;;
37903;SDS011;23738;50.422;18.758;2023-03-12T00:03:48;13.90;;;10.00;;
37903;SDS011;23738;50.422;18.758;2023-03-12T00:06:17;14.20;;;10.30;;
37903;SDS011;23738;50.422;18.758;2023-03-12T00:08:45;11.10;;;9.70;;
37903;SDS011;23738;50.422;18.758;2023-03-12T00:11:13;12.80;;;10.40;;
37903;SDS011;23738;50.422;18.758;2023-03-12T00:13:42;12.30;;;10.50;;
37903;SDS011;23738;50.422;18.758;2023-03-12T00:16:10;13.00;;;10.10;;
37903;SDS011;23738;50.422;18.758;2023-03-12T00:18:39;19.70;;;12.40;;
37903;SDS011;23738;50.422;18.758;2023-03-12T00:21:07;15.50;;;11.90;;
37903;SDS011;23738;50.422;18.758;2023-03-12T00:23:35;15.00;;;11.00;;
37903;SDS011;23738;50.422;18.758;2023-03-12T00:26:03;13.10;;;10.40;;
37903;SDS011;23738;50.422;18.758;2023-03-12T00:28:32;15.20;;;10.40;;
37903;SDS011;23738;50.422;18.758;2023-03-12T00:31:00;13.30;;;10.40;;
37903;SDS011;23738;50.422;18.758;2023-03-12T00:33:29;15.60;;;11.30;;
37903;SDS011;23738;50.422;18.758;2023-03-12T00:35:58;13.30;;;9.70;;
37903;SDS011;23738;50.422;18.758;2023-03-12T00:38:26;14.90;;;11.20;;
37903;SDS011;23738;50.422;18.758;2023-03-12T00:40:53;17.90;;;11.00;;
37903;SDS011;23738;50.422;18.758;2023-03-12T00:43:20;18.70;;;11.80;;
37903;SDS011;23738;50.422;18.758;2023-03-12T00:45:47;16.90;;;11.60;;
37903;SDS011;23738;50.422;18.758;2023-03-12T00:48:15;17.10;;;10.30;;
37903;SDS011;23738;50.422;18.758;2023-03-12T00:50:42;16.80;;;11.90;;
37903;SDS011;23738;50.422;18.758;2023-03-12T00:53:09;14.50;;;11.10;;
37903;SDS011;23738;50.422;18.758;2023-03-12T00:55:36;15.10;;;11.90;;
37903;SDS011;23738;50.422;18.758;2023-03-12T00:58:04;19.30;;;11.20;;
37903;SDS011;23738;50.422;18.758;2023-03-12T01:00:31;17.80;;;10.90;;
37903;SDS011;23738;50.422;18.758;2023-03-12T01:02:58;16.20;;;10.90;;
37903;SDS011;23738;50.422;18.758;2023-03-12T01:05:26;16.10;;;11.20;;
37903;SDS011;23738;50.422;18.758;2023-03-12T01:07:53;18.50;;;11.50;;
37903;SDS011;23738;50.422;18.758;2023-03-12T01:10:21;13.50;;;11.40;;
37903;SDS011;23738;50.422;18.758;2023-03-12T01:12:48;16.40;;;11.80;;
37903;SDS011;23738;50.422;18.758;2023-03-12T01:15:16;20.10;;;13.80;;
37903;SDS011;23738;50.422;18.758;2023-03-12T01:17:44;25.70;;;14.20;;
37903;SDS011;23738;50.422;18.758;2023-03-12T01:20:12;14.10;;;12.70;;
37903;SDS011;23738;50.422;18.758;2023-03-12T01:22:39;19.20;;;13.00;;
37903;SDS011;23738;50.422;18.758;2023-03-12T01:25:07;19.00;;;13.20;;
37903;SDS011;23738;50.422;18.758;2023-03-12T01:27:35;13.90;;;12.40;;
37903;SDS011;23738;50.422;18.758;2023-03-12T01:30:03;21.00;;;13.90;;
37903;SDS011;23738;50.422;18.758;2023-03-12T01:32:32;19.30;;;13.90;;
37903;SDS011;23738;50.422;18.758;2023-03-12T01:34:59;18.20;;;12.40;;
37903;SDS011;23738;50.422;18.758;2023-03-12T01:37:27;17.30;;;13.00;;
37903;SDS011;23738;50.422;18.758;2023-03-12T01:39:54;19.00;;;12.20;;
37903;SDS011;23738;50.422;18.758;2023-03-12T01:42:21;16.40;;;12.30;;
37903;SDS011;23738;50.422;18.758;2023-03-12T01:44:50;17.10;;;11.20;;
37903;SDS011;23738;50.422;18.758;2023-03-12T01:47:19;19.10;;;11.20;;
37903;SDS011;23738;50.422;18.758;2023-03-12T01:49:46;16.40;;;11.30;;
37903;SDS011;23738;50.422;18.758;2023-03-12T01:52:15;19.90;;;11.20;;
37903;SDS011;23738;50.422;18.758;2023-03-12T01:54:47;15.80;;;11.80;;
37903;SDS011;23738;50.422;18.758;2023-03-12T01:57:19;21.80;;;15.20;;
37903;SDS011;23738;50.422;18.758;2023-03-12T01:59:49;25.50;;;14.60;;
37903;SDS011;23738;50.422;18.758;2023-03-12T02:02:19;21.50;;;14.30;;
37903;SDS011;23738;50.422;18.758;2023-03-12T02:04:52;32.40;;;16.20;;
37903;SDS011;23738;50.422;18.758;2023-03-12T02:07:29;23.60;;;14.40;;
37903;SDS011;23738;50.422;18.758;2023-03-12T02:09:56;24.10;;;13.80;;
37903;SDS011;23738;50.422;18.758;2023-03-12T02:12:23;19.60;;;12.50;;
37903;SDS011;23738;50.422;18.758;2023-03-12T02:14:50;19.30;;;12.10;;
37903;SDS011;23738;50.422;18.758;2023-03-12T02:17:18;15.50;;;11.00;;
37903;SDS011;23738;50.422;18.758;2023-03-12T02:19:48;18.10;;;11.50;;
37903;SDS011;23738;50.422;18.758;2023-03-12T02:22:25;16.40;;;12.30;;
37903;SDS011;23738;50.422;18.758;2023-03-12T02:24:55;14.80;;;10.40;;
37903;SDS011;23738;50.422;18.758;2023-03-12T02:27:29;16.70;;;11.30;;
37903;SDS011;23738;50.422;18.758;2023-03-12T02:29:59;21.80;;;13.00;;
37903;SDS011;23738;50.422;18.758;2023-03-12T02:32:28;16.60;;;12.00;;
37903;SDS011;23738;50.422;18.758;2023-03-12T02:35:01;18.50;;;12.50;;
37903;SDS011;23738;50.422;18.758;2023-03-12T02:37:29;21.60;;;12.00;;
37903;SDS011;23738;50.422;18.758;2023-03-12T02:39:59;17.90;;;10.90;;
37903;SDS011;23738;50.422;18.758;2023-03-12T02:42:32;14.10;;;10.70;;
37903;SDS011;23738;50.422;18.758;2023-03-12T02:45:00;15.90;;;10.70;;
37903;SDS011;23738;50.422;18.758;2023-03-12T02:47:28;18.30;;;11.80;;
37903;SDS011;23738;50.422;18.758;2023-03-12T02:49:55;15.90;;;10.50;;
37903;SDS011;23738;50.422;18.758;2023-03-12T02:52:22;15.70;;;11.20;;
37903;SDS011;23738;50.422;18.758;2023-03-12T02:54:50;16.80;;;12.00;;
37903;SDS011;23738;50.422;18.758;2023-03-12T02:57:17;20.90;;;12.50;;
37903;SDS011;23738;50.422;18.758;2023-03-12T02:59:44;20.50;;;12.90;;
37903;SDS011;23738;50.422;18.758;2023-03-12T03:02:11;15.60;;;10.80;;
37903;SDS011;23738;50.422;18.758;2023-03-12T03:04:39;15.50;;;11.30;;
37903;SDS011;23738;50.422;18.758;2023-03-12T03:07:06;14.90;;;10.30;;
37903;SDS011;23738;50.422;18.758;2023-03-12T03:09:33;12.50;;;10.30;;
37903;SDS011;23738;50.422;18.758;2023-03-12T03:12:00;18.50;;;10.90;;
37903;SDS011;23738;50.422;18.758;2023-03-12T03:14:28;12.30;;;10.80;;
37903;SDS011;23738;50.422;18.758;2023-03-12T03:16:55;14.60;;;10.60;;
37903;SDS011;23738;50.422;18.758;2023-03-12T03:19:22;17.60;;;11.30;;
37903;SDS011;23738;50.422;18.758;2023-03-12T03:21:49;14.00;;;9.50;;
37903;SDS011;23738;50.422;18.758;2023-03-12T03:24:17;16.00;;;10.10;;
37903;SDS011;23738;50.422;18.758;2023-03-12T03:26:44;18.80;;;10.50;;
37903;SDS011;23738;50.422;18.758;2023-03-12T03:29:11;16.60;;;11.00;;
37903;SDS011;23738;50.422;18.758;2023-03-12T03:31:39;14.40;;;10.50;;
37903;SDS011;23738;50.422;18.758;2023-03-12T03:34:06;13.80;;;10.40;;
37903;SDS011;23738;50.422;18.758;2023-03-12T03:36:33;14.50;;;10.20;;
37903;SDS011;23738;50.422;18.758;2023-03-12T03:39:00;11.70;;;10.10;;
37903;SDS011;23738;50.422;18.758;2023-03-12T03:41:29;11.70;;;9.30;;
37903;SDS011;23738;50.422;18.758;2023-03-12T03:43:57;15.10;;;10.00;;
37903;SDS011;23738;50.422;18.758;2023-03-12T03:46:25;11.90;;;9.60;;
37903;SDS011;23738;50.422;18.758;2023-03-12T03:48:52;13.70;;;9.60;;
37903;SDS011;23738;50.422;18.758;2023-03-12T03:51:19;15.90;;;9.30;;
37903;SDS011;23738;50.422;18.758;2023-03-12T03:53:47;19.10;;;9.50;;
37903;SDS011;23738;50.422;18.758;2023-03-12T03:56:14;16.90;;;8.40;;
37903;SDS011;23738;50.422;18.758;2023-03-12T03:58:41;10.30;;;8.30;;
37903;SDS011;23738;50.422;18.758;2023-03-12T04:01:09;12.20;;;9.10;;
37903;SDS011;23738;50.422;18.758;2023-03-12T04:03:39;11.80;;;8.90;;
37903;SDS011;23738;50.422;18.758;2023-03-12T04:06:06;17.30;;;9.80;;
37903;SDS011;23738;50.422;18.758;2023-03-12T04:08:34;12.80;;;9.90;;
37903;SDS011;23738;50.422;18.758;2023-03-12T04:11:06;13.00;;;10.10;;
37903;SDS011;23738;50.422;18.758;2023-03-12T04:13:34;11.60;;;9.40;;
37903;SDS011;23738;50.422;18.758;2023-03-12T04:16:01;11.40;;;8.60;;
37903;SDS011;23738;50.422;18.758;2023-03-12T04:18:29;12.70;;;9.60;;
37903;SDS011;23738;50.422;18.758;2023-03-12T04:20:57;12.70;;;8.70;;
37903;SDS011;23738;50.422;18.758;2023-03-12T04:23:24;15.00;;;9.30;;
37903;SDS011;23738;50.422;18.758;2023-03-12T04:25:51;12.50;;;9.00;;
37903;SDS011;23738;50.422;18.758;2023-03-12T04:28:18;17.70;;;10.50;;
37903;SDS011;23738;50.422;18.758;2023-03-12T04:30:53;11.20;;;9.30;;
37903;SDS011;23738;50.422;18.758;2023-03-12T04:33:21;12.50;;;9.80;;
37903;SDS011;23738;50.422;18.758;2023-03-12T04:35:49;15.90;;;10.00;;
37903;SDS011;23738;50.422;18.758;2023-03-12T04:38:17;12.80;;;8.60;;
37903;SDS011;23738;50.422;18.758;2023-03-12T04:40:45;13.40;;;9.40;;
37903;SDS011;23738;50.422;18.758;2023-03-12T04:43:12;12.90;;;8.90;;
37903;SDS011;23738;50.422;18.758;2023-03-12T04:45:39;11.60;;;8.60;;
37903;SDS011;23738;50.422;18.758;2023-03-12T04:48:07;13.30;;;9.40;;
37903;SDS011;23738;50.422;18.758;2023-03-12T04:50:34;14.80;;;9.20;;
37903;SDS011;23738;50.422;18.758;2023-03-12T04:53:01;16.60;;;9.90;;
37903;SDS011;23738;50.422;18.758;2023-03-12T04:55:29;13.70;;;9.40;;
37903;SDS011;23738;50.422;18.758;2023-03-12T04:57:56;14.60;;;10.10;;
37903;SDS011;23738;50.422;18.758;2023-03-12T05:00:24;19.00;;;9.50;;
37903;SDS011;23738;50.422;18.758;2023-03-12T05:02:51;14.30;;;8.70;;
37903;SDS011;23738;50.422;18.758;2023-03-12T05:05:19;13.30;;;8.00;;
37903;SDS011;23738;50.422;18.758;2023-03-12T05:07:47;16.00;;;9.50;;
37903;SDS011;23738;50.422;18.758;2023-03-12T05:12:41;15.00;;;9.40;;
37903;SDS011;23738;50.422;18.758;2023-03-12T05:15:09;17.70;;;9.70;;
37903;SDS011;23738;50.422;18.758;2023-03-12T05:17:37;13.90;;;9.80;;
37903;SDS011;23738;50.422;18.758;2023-03-12T05:20:05;17.50;;;10.00;;
37903;SDS011;23738;50.422;18.758;2023-03-12T05:22:33;12.30;;;9.10;;
37903;SDS011;23738;50.422;18.758;2023-03-12T05:25:00;12.30;;;8.40;;
37903;SDS011;23738;50.422;18.758;2023-03-12T05:27:28;16.00;;;10.00;;
37903;SDS011;23738;50.422;18.758;2023-03-12T05:29:55;20.00;;;11.10;;
37903;SDS011;23738;50.422;18.758;2023-03-12T05:32:23;16.60;;;10.20;;
37903;SDS011;23738;50.422;18.758;2023-03-12T05:34:50;15.20;;;7.60;;
37903;SDS011;23738;50.422;18.758;2023-03-12T05:37:17;11.50;;;7.20;;
37903;SDS011;23738;50.422;18.758;2023-03-12T05:39:44;10.90;;;7.40;;
37903;SDS011;23738;50.422;18.758;2023-03-12T05:42:11;13.50;;;8.90;;
37903;SDS011;23738;50.422;18.758;2023-03-12T05:44:39;10.50;;;7.80;;
37903;SDS011;23738;50.422;18.758;2023-03-12T05:47:07;12.70;;;8.80;;
37903;SDS011;23738;50.422;18.758;2023-03-12T05:49:35;21.30;;;11.20;;
37903;SDS011;23738;50.422;18.758;2023-03-12T05:52:02;15.90;;;8.20;;
37903;SDS011;23738;50.422;18.758;2023-03-12T05:54:30;15.90;;;9.00;;
37903;SDS011;23738;50.422;18.758;2023-03-12T05:56:58;13.80;;;9.70;;
37903;SDS011;23738;50.422;18.758;2023-03-12T05:59:25;18.10;;;11.40;;
37903;SDS011;23738;50.422;18.758;2023-03-12T06:01:52;39.30;;;20.70;;
37903;SDS011;23738;50.422;18.758;2023-03-12T06:04:20;33.50;;;17.10;;
37903;SDS011;23738;50.422;18.758;2023-03-12T06:06:47;20.10;;;11.20;;
37903;SDS011;23738;50.422;18.758;2023-03-12T06:09:14;13.20;;;8.90;;
37903;SDS011;23738;50.422;18.758;2023-03-12T06:11:41;18.30;;;8.80;;
37903;SDS011;23738;50.422;18.758;2023-03-12T06:14:09;17.20;;;9.20;;
37903;SDS011;23738;50.422;18.758;2023-03-12T06:16:36;13.60;;;8.50;;
37903;SDS011;23738;50.422;18.758;2023-03-12T06:19:03;11.70;;;7.80;;
37903;SDS011;23738;50.422;18.758;2023-03-12T06:21:32;13.60;;;9.10;;
37903;SDS011;23738;50.422;18.758;2023-03-12T06:24:00;11.50;;;8.20;;
37903;SDS011;23738;50.422;18.758;2023-03-12T06:26:28;12.70;;;8.30;;
37903;SDS011;23738;50.422;18.758;2023-03-12T06:28:56;8.90;;;7.20;;
37903;SDS011;23738;50.422;18.758;2023-03-12T06:31:23;11.10;;;7.40;;
37903;SDS011;23738;50.422;18.758;2023-03-12T06:33:50;8.20;;;6.60;;
37903;SDS011;23738;50.422;18.758;2023-03-12T06:36:18;6.90;;;5.70;;
37903;SDS011;23738;50.422;18.758;2023-03-12T06:38:47;8.50;;;5.60;;
37903;SDS011;23738;50.422;18.758;2023-03-12T06:41:15;7.20;;;5.50;;
37903;SDS011;23738;50.422;18.758;2023-03-12T06:43:43;6.90;;;5.10;;
37903;SDS011;23738;50.422;18.758;2023-03-12T06:46:12;8.30;;;4.90;;
37903;SDS011;23738;50.422;18.758;2023-03-12T06:48:41;7.60;;;5.70;;
37903;SDS011;23738;50.422;18.758;2023-03-12T06:51:11;5.70;;;4.40;;
37903;SDS011;23738;50.422;18.758;2023-03-12T06:53:40;10.30;;;5.60;;
37903;SDS011;23738;50.422;18.758;2023-03-12T06:56:08;9.20;;;5.40;;
37903;SDS011;23738;50.422;18.758;2023-03-12T06:58:35;6.40;;;5.00;;
37903;SDS011;23738;50.422;18.758;2023-03-12T07:01:03;6.80;;;4.50;;
37903;SDS011;23738;50.422;18.758;2023-03-12T07:03:30;7.80;;;4.80;;
37903;SDS011;23738;50.422;18.758;2023-03-12T07:05:58;6.00;;;4.30;;
37903;SDS011;23738;50.422;18.758;2023-03-12T07:08:26;9.40;;;5.40;;
37903;SDS011;23738;50.422;18.758;2023-03-12T07:10:55;4.90;;;3.60;;
37903;SDS011;23738;50.422;18.758;2023-03-12T07:13:23;5.60;;;4.40;;
37903;SDS011;23738;50.422;18.758;2023-03-12T07:15:50;5.60;;;4.00;;
37903;SDS011;23738;50.422;18.758;2023-03-12T07:18:17;6.20;;;4.10;;
37903;SDS011;23738;50.422;18.758;2023-03-12T07:20:45;6.90;;;5.00;;
37903;SDS011;23738;50.422;18.758;2023-03-12T07:23:12;5.20;;;4.60;;
37903;SDS011;23738;50.422;18.758;2023-03-12T07:25:40;6.40;;;4.90;;
37903;SDS011;23738;50.422;18.758;2023-03-12T07:28:08;7.30;;;4.60;;
37903;SDS011;23738;50.422;18.758;2023-03-12T07:30:36;6.50;;;4.70;;
37903;SDS011;23738;50.422;18.758;2023-03-12T07:33:04;6.60;;;3.80;;
37903;SDS011;23738;50.422;18.758;2023-03-12T07:35:33;5.90;;;4.30;;
37903;SDS011;23738;50.422;18.758;2023-03-12T07:38:00;6.00;;;4.50;;
37903;SDS011;23738;50.422;18.758;2023-03-12T07:40:28;7.00;;;4.50;;
37903;SDS011;23738;50.422;18.758;2023-03-12T07:42:56;5.60;;;4.30;;
37903;SDS011;23738;50.422;18.758;2023-03-12T07:45:23;4.30;;;3.70;;
37903;SDS011;23738;50.422;18.758;2023-03-12T07:47:51;5.00;;;3.50;;
37903;SDS011;23738;50.422;18.758;2023-03-12T07:50:18;5.80;;;3.90;;
37903;SDS011;23738;50.422;18.758;2023-03-12T07:52:46;7.20;;;4.30;;
37903;SDS011;23738;50.422;18.758;2023-03-12T07:55:13;5.10;;;3.80;;
37903;SDS011;23738;50.422;18.758;2023-03-12T07:57:41;6.00;;;4.10;;
37903;SDS011;23738;50.422;18.758;2023-03-12T08:00:11;5.60;;;3.10;;
37903;SDS011;23738;50.422;18.758;2023-03-12T08:02:40;6.60;;;3.90;;
37903;SDS011;23738;50.422;18.758;2023-03-12T08:05:07;4.50;;;3.30;;
37903;SDS011;23738;50.422;18.758;2023-03-12T08:07:35;4.70;;;3.50;;
37903;SDS011;23738;50.422;18.758;2023-03-12T08:10:04;6.00;;;3.90;;
37903;SDS011;23738;50.422;18.758;2023-03-12T08:12:33;5.20;;;3.70;;
37903;SDS011;23738;50.422;18.758;2023-03-12T08:15:02;5.80;;;3.80;;
37903;SDS011;23738;50.422;18.758;2023-03-12T08:17:30;6.20;;;3.60;;
37903;SDS011;23738;50.422;18.758;2023-03-12T08:19:58;7.40;;;4.40;;
37903;SDS011;23738;50.422;18.758;2023-03-12T08:22:26;7.70;;;4.00;;
37903;SDS011;23738;50.422;18.758;2023-03-12T08:24:53;4.80;;;3.80;;
37903;SDS011;23738;50.422;18.758;2023-03-12T08:27:20;9.00;;;4.30;;
37903;SDS011;23738;50.422;18.758;2023-03-12T08:29:47;5.20;;;3.70;;
37903;SDS011;23738;50.422;18.758;2023-03-12T08:32:14;7.70;;;3.80;;
37903;SDS011;23738;50.422;18.758;2023-03-12T08:34:42;7.90;;;4.80;;
37903;SDS011;23738;50.422;18.758;2023-03-12T08:37:09;7.00;;;4.00;;
37903;SDS011;23738;50.422;18.758;2023-03-12T08:39:36;4.50;;;3.90;;
37903;SDS011;23738;50.422;18.758;2023-03-12T08:42:03;5.50;;;4.20;;
37903;SDS011;23738;50.422;18.758;2023-03-12T08:44:32;6.00;;;4.10;;
37903;SDS011;23738;50.422;18.758;2023-03-12T08:47:00;6.20;;;4.20;;
37903;SDS011;23738;50.422;18.758;2023-03-12T08:49:27;7.90;;;4.10;;
37903;SDS011;23738;50.422;18.758;2023-03-12T08:51:54;8.90;;;4.30;;
37903;SDS011;23738;50.422;18.758;2023-03-12T08:54:21;10.20;;;4.30;;
37903;SDS011;23738;50.422;18.758;2023-03-12T08:56:49;6.80;;;3.50;;
37903;SDS011;23738;50.422;18.758;2023-03-12T08:59:18;6.90;;;4.10;;
37903;SDS011;23738;50.422;18.758;2023-03-12T09:01:45;7.30;;;3.80;;
37903;SDS011;23738;50.422;18.758;2023-03-12T09:04:13;6.50;;;3.20;;
37903;SDS011;23738;50.422;18.758;2023-03-12T09:06:41;6.70;;;4.00;;
37903;SDS011;23738;50.422;18.758;2023-03-12T09:09:09;16.70;;;3.50;;
37903;SDS011;23738;50.422;18.758;2023-03-12T09:11:36;7.20;;;4.00;;
37903;SDS011;23738;50.422;18.758;2023-03-12T09:14:05;6.80;;;3.20;;
37903;SDS011;23738;50.422;18.758;2023-03-12T23:24:07;8.20;;;5.80;;
37903;SDS011;23738;50.422;18.758;2023-03-12T23:26:35;6.20;;;4.50;;
37903;SDS011;23738;50.422;18.758;2023-03-12T23:29:02;6.40;;;4.50;;
37903;SDS011;23738;50.422;18.758;2023-03-12T23:31:30;5.80;;;4.70;;
37903;SDS011;23738;50.422;18.758;2023-03-12T23:33:57;7.50;;;4.70;;
37903;SDS011;23738;50.422;18.758;2023-03-12T23:36:24;5.00;;;3.60;;
37903;SDS011;23738;50.422;18.758;2023-03-12T23:38:51;6.40;;;4.10;;
37903;SDS011;23738;50.422;18.758;2023-03-12T23:41:19;7.60;;;5.10;;
37903;SDS011;23738;50.422;18.758;2023-03-12T23:43:47;8.70;;;5.00;;
37903;SDS011;23738;50.422;18.758;2023-03-12T23:46:15;9.80;;;4.60;;
37903;SDS011;23738;50.422;18.758;2023-03-12T23:48:43;7.80;;;5.10;;
37903;SDS011;23738;50.422;18.758;2023-03-12T23:51:12;6.80;;;4.40;;
37903;SDS011;23738;50.422;18.758;2023-03-12T23:53:41;8.40;;;5.00;;
37903;SDS011;23738;50.422;18.758;2023-03-12T23:56:11;7.50;;;5.30;;
37903;SDS011;23738;50.422;18.758;2023-03-12T23:58:40;7.40;;;4.90;;
